Edmonds, Idaho
Current Conditions -  °F | °C
As of 10:53 PM on Thursday 30 Oct 2014 (Local Time) from KRXE Reporting Station
Clear Clear  
Wind Chill: 38°   Ceiling: Unl
Heat Index: 41°   Visibility: 10mi
Dew Point: 31°   Wind: 5mph
Humidity: 67%   Direction: 50°NE
Pressure: 30.13"   Gusts: NA
Location:  43.7568°N, 111.624°W
Report Text: KRXE 310453Z AUTO 05004KT 10SM CLR 05/M01 A3013 RMK AO2 SLP198 T00501006
Loading
Personal Weather Stations






























Interactive Weather Map
Tropical Storm Tracking
New forecast layout! Learn more

10-Day Weather Forecast

Advertisements
Track Severe Weather on mobile